sensor_id;sensor_type;location;lat;lon;timestamp;temperature;humidity
4840;DHT22;2434;48.486;7.964;2022-09-09T00:02:02;19.20;53.10
4840;DHT22;2434;48.486;7.964;2022-09-09T00:04:34;19.00;53.40
4840;DHT22;2434;48.486;7.964;2022-09-09T00:07:10;19.00;54.40
4840;DHT22;2434;48.486;7.964;2022-09-09T00:09:46;18.90;54.60
4840;DHT22;2434;48.486;7.964;2022-09-09T00:12:21;18.80;55.30
4840;DHT22;2434;48.486;7.964;2022-09-09T00:14:53;18.80;55.80
4840;DHT22;2434;48.486;7.964;2022-09-09T00:17:31;18.80;56.30
4840;DHT22;2434;48.486;7.964;2022-09-09T00:20:04;18.70;57.40
4840;DHT22;2434;48.486;7.964;2022-09-09T00:22:42;18.60;58.70
4840;DHT22;2434;48.486;7.964;2022-09-09T00:25:17;18.60;63.00
4840;DHT22;2434;48.486;7.964;2022-09-09T00:27:49;18.60;64.10
4840;DHT22;2434;48.486;7.964;2022-09-09T00:30:20;18.50;66.90
4840;DHT22;2434;48.486;7.964;2022-09-09T00:32:50;18.50;69.80
4840;DHT22;2434;48.486;7.964;2022-09-09T00:35:23;18.40;69.70
4840;DHT22;2434;48.486;7.964;2022-09-09T00:37:55;18.20;69.60
4840;DHT22;2434;48.486;7.964;2022-09-09T00:40:31;18.10;68.70
4840;DHT22;2434;48.486;7.964;2022-09-09T00:43:24;18.10;69.10
4840;DHT22;2434;48.486;7.964;2022-09-09T00:46:23;18.00;71.20
4840;DHT22;2434;48.486;7.964;2022-09-09T00:48:58;18.00;71.20
4840;DHT22;2434;48.486;7.964;2022-09-09T00:51:38;17.80;71.00
4840;DHT22;2434;48.486;7.964;2022-09-09T00:54:33;17.70;71.30
4840;DHT22;2434;48.486;7.964;2022-09-09T00:57:14;17.60;70.60
4840;DHT22;2434;48.486;7.964;2022-09-09T00:59:48;17.60;69.60
4840;DHT22;2434;48.486;7.964;2022-09-09T01:02:25;17.60;70.30
4840;DHT22;2434;48.486;7.964;2022-09-09T01:04:57;17.50;71.10
4840;DHT22;2434;48.486;7.964;2022-09-09T01:07:26;17.60;70.10
4840;DHT22;2434;48.486;7.964;2022-09-09T01:09:57;17.50;69.10
4840;DHT22;2434;48.486;7.964;2022-09-09T01:12:34;17.40;71.00
4840;DHT22;2434;48.486;7.964;2022-09-09T01:15:12;17.40;71.10
4840;DHT22;2434;48.486;7.964;2022-09-09T01:17:55;17.30;71.80
4840;DHT22;2434;48.486;7.964;2022-09-09T01:20:31;17.20;70.60
4840;DHT22;2434;48.486;7.964;2022-09-09T01:23:23;17.20;70.80
4840;DHT22;2434;48.486;7.964;2022-09-09T01:26:21;17.20;72.10
4840;DHT22;2434;48.486;7.964;2022-09-09T01:28:54;17.20;71.70
4840;DHT22;2434;48.486;7.964;2022-09-09T01:31:35;17.10;71.00
4840;DHT22;2434;48.486;7.964;2022-09-09T01:34:10;17.20;70.00
4840;DHT22;2434;48.486;7.964;2022-09-09T01:36:43;17.20;72.50
4840;DHT22;2434;48.486;7.964;2022-09-09T01:39:12;17.30;70.80
4840;DHT22;2434;48.486;7.964;2022-09-09T01:41:43;17.60;69.60
4840;DHT22;2434;48.486;7.964;2022-09-09T01:44:14;17.70;69.80
4840;DHT22;2434;48.486;7.964;2022-09-09T01:46:45;17.90;70.10
4840;DHT22;2434;48.486;7.964;2022-09-09T01:49:17;17.90;68.10
4840;DHT22;2434;48.486;7.964;2022-09-09T01:51:48;17.70;67.20
4840;DHT22;2434;48.486;7.964;2022-09-09T01:54:18;17.70;66.80
4840;DHT22;2434;48.486;7.964;2022-09-09T01:56:56;17.70;67.60
4840;DHT22;2434;48.486;7.964;2022-09-09T01:59:48;17.70;68.50
4840;DHT22;2434;48.486;7.964;2022-09-09T02:02:22;17.60;69.50
4840;DHT22;2434;48.486;7.964;2022-09-09T02:05:13;17.50;68.70
4840;DHT22;2434;48.486;7.964;2022-09-09T02:07:47;17.30;70.40
4840;DHT22;2434;48.486;7.964;2022-09-09T02:10:42;17.20;70.80
4840;DHT22;2434;48.486;7.964;2022-09-09T02:13:23;17.10;70.70
4840;DHT22;2434;48.486;7.964;2022-09-09T02:15:56;17.20;68.70
4840;DHT22;2434;48.486;7.964;2022-09-09T02:18:29;17.10;67.90
4840;DHT22;2434;48.486;7.964;2022-09-09T02:20:59;17.00;70.10
4840;DHT22;2434;48.486;7.964;2022-09-09T02:23:28;17.00;69.00
4840;DHT22;2434;48.486;7.964;2022-09-09T02:25:58;17.00;68.50
4840;DHT22;2434;48.486;7.964;2022-09-09T02:28:31;17.00;69.00
4840;DHT22;2434;48.486;7.964;2022-09-09T02:31:02;16.90;70.30
4840;DHT22;2434;48.486;7.964;2022-09-09T02:33:41;16.80;68.80
4840;DHT22;2434;48.486;7.964;2022-09-09T02:36:12;16.80;68.40
4840;DHT22;2434;48.486;7.964;2022-09-09T02:38:46;16.70;69.00
4840;DHT22;2434;48.486;7.964;2022-09-09T02:41:19;16.70;67.40
4840;DHT22;2434;48.486;7.964;2022-09-09T02:43:50;16.80;67.00
4840;DHT22;2434;48.486;7.964;2022-09-09T02:46:32;16.90;66.80
4840;DHT22;2434;48.486;7.964;2022-09-09T02:49:08;17.00;67.00
4840;DHT22;2434;48.486;7.964;2022-09-09T02:51:48;17.00;67.80
4840;DHT22;2434;48.486;7.964;2022-09-09T02:54:25;17.00;67.70
4840;DHT22;2434;48.486;7.964;2022-09-09T02:57:01;17.00;66.80
4840;DHT22;2434;48.486;7.964;2022-09-09T02:59:37;17.00;67.30
4840;DHT22;2434;48.486;7.964;2022-09-09T03:02:06;16.90;67.40
4840;DHT22;2434;48.486;7.964;2022-09-09T03:04:35;16.90;68.00
4840;DHT22;2434;48.486;7.964;2022-09-09T03:07:04;16.80;66.20
4840;DHT22;2434;48.486;7.964;2022-09-09T03:09:32;16.80;67.40
4840;DHT22;2434;48.486;7.964;2022-09-09T03:12:01;16.80;67.50
4840;DHT22;2434;48.486;7.964;2022-09-09T03:14:32;16.80;67.90
4840;DHT22;2434;48.486;7.964;2022-09-09T03:17:03;16.80;66.90
4840;DHT22;2434;48.486;7.964;2022-09-09T03:19:37;16.80;65.50
4840;DHT22;2434;48.486;7.964;2022-09-09T03:22:10;16.90;66.70
4840;DHT22;2434;48.486;7.964;2022-09-09T03:24:41;16.90;66.20
4840;DHT22;2434;48.486;7.964;2022-09-09T03:27:10;16.90;66.20
4840;DHT22;2434;48.486;7.964;2022-09-09T03:29:39;16.90;66.10
4840;DHT22;2434;48.486;7.964;2022-09-09T03:32:13;16.90;65.80
4840;DHT22;2434;48.486;7.964;2022-09-09T03:34:44;17.00;65.70
4840;DHT22;2434;48.486;7.964;2022-09-09T03:37:14;17.10;65.30
4840;DHT22;2434;48.486;7.964;2022-09-09T03:39:43;17.30;64.50
4840;DHT22;2434;48.486;7.964;2022-09-09T03:42:13;17.40;64.00
4840;DHT22;2434;48.486;7.964;2022-09-09T03:44:48;17.50;63.40
4840;DHT22;2434;48.486;7.964;2022-09-09T03:47:21;17.50;64.90
4840;DHT22;2434;48.486;7.964;2022-09-09T03:49:54;17.20;64.90
4840;DHT22;2434;48.486;7.964;2022-09-09T03:52:23;17.10;63.90
4840;DHT22;2434;48.486;7.964;2022-09-09T03:54:53;17.10;64.10
4840;DHT22;2434;48.486;7.964;2022-09-09T03:57:23;17.20;64.30
4840;DHT22;2434;48.486;7.964;2022-09-09T03:59:52;17.20;64.20
4840;DHT22;2434;48.486;7.964;2022-09-09T04:02:22;17.20;64.40
4840;DHT22;2434;48.486;7.964;2022-09-09T04:04:51;17.10;64.00
4840;DHT22;2434;48.486;7.964;2022-09-09T04:07:19;17.00;63.70
4840;DHT22;2434;48.486;7.964;2022-09-09T04:09:48;16.90;64.30
4840;DHT22;2434;48.486;7.964;2022-09-09T04:12:17;16.90;64.40
4840;DHT22;2434;48.486;7.964;2022-09-09T04:14:45;17.00;63.90
4840;DHT22;2434;48.486;7.964;2022-09-09T04:17:14;16.90;63.90
4840;DHT22;2434;48.486;7.964;2022-09-09T04:19:45;17.00;63.30
4840;DHT22;2434;48.486;7.964;2022-09-09T04:22:14;17.00;62.80
4840;DHT22;2434;48.486;7.964;2022-09-09T04:24:42;17.00;62.70
4840;DHT22;2434;48.486;7.964;2022-09-09T04:27:16;17.00;63.30
4840;DHT22;2434;48.486;7.964;2022-09-09T04:29:45;17.00;63.60
4840;DHT22;2434;48.486;7.964;2022-09-09T04:32:13;17.00;63.20
4840;DHT22;2434;48.486;7.964;2022-09-09T04:34:42;17.10;62.90
4840;DHT22;2434;48.486;7.964;2022-09-09T04:37:13;17.30;63.30
4840;DHT22;2434;48.486;7.964;2022-09-09T04:39:42;17.30;63.10
4840;DHT22;2434;48.486;7.964;2022-09-09T04:42:12;17.40;63.00
4840;DHT22;2434;48.486;7.964;2022-09-09T04:44:42;17.40;63.30
4840;DHT22;2434;48.486;7.964;2022-09-09T04:47:10;17.40;63.20
4840;DHT22;2434;48.486;7.964;2022-09-09T04:49:39;17.40;63.60
4840;DHT22;2434;48.486;7.964;2022-09-09T04:52:08;17.30;63.60
4840;DHT22;2434;48.486;7.964;2022-09-09T04:54:38;17.20;64.30
4840;DHT22;2434;48.486;7.964;2022-09-09T04:57:07;17.10;65.70
4840;DHT22;2434;48.486;7.964;2022-09-09T04:59:35;16.90;65.50
4840;DHT22;2434;48.486;7.964;2022-09-09T05:02:04;16.80;65.90
4840;DHT22;2434;48.486;7.964;2022-09-09T05:04:32;16.70;65.90
4840;DHT22;2434;48.486;7.964;2022-09-09T05:07:01;16.70;66.40
4840;DHT22;2434;48.486;7.964;2022-09-09T05:09:29;16.80;66.50
4840;DHT22;2434;48.486;7.964;2022-09-09T05:12:00;16.80;66.90
4840;DHT22;2434;48.486;7.964;2022-09-09T05:14:33;16.70;67.40
4840;DHT22;2434;48.486;7.964;2022-09-09T05:17:04;16.60;67.80
4840;DHT22;2434;48.486;7.964;2022-09-09T05:19:34;16.60;68.50
4840;DHT22;2434;48.486;7.964;2022-09-09T05:22:02;16.60;68.60
4840;DHT22;2434;48.486;7.964;2022-09-09T05:24:38;16.60;69.00
4840;DHT22;2434;48.486;7.964;2022-09-09T05:27:08;16.60;68.70
4840;DHT22;2434;48.486;7.964;2022-09-09T05:29:40;16.60;69.20
4840;DHT22;2434;48.486;7.964;2022-09-09T05:32:11;16.60;68.30
4840;DHT22;2434;48.486;7.964;2022-09-09T05:34:43;16.60;68.90
4840;DHT22;2434;48.486;7.964;2022-09-09T05:37:11;16.70;68.50
4840;DHT22;2434;48.486;7.964;2022-09-09T05:39:40;16.70;68.30
4840;DHT22;2434;48.486;7.964;2022-09-09T05:42:10;16.80;68.50
4840;DHT22;2434;48.486;7.964;2022-09-09T05:44:38;16.80;69.20
4840;DHT22;2434;48.486;7.964;2022-09-09T05:47:07;16.80;68.50
4840;DHT22;2434;48.486;7.964;2022-09-09T05:49:36;16.80;69.10
4840;DHT22;2434;48.486;7.964;2022-09-09T05:52:04;16.90;67.60
4840;DHT22;2434;48.486;7.964;2022-09-09T05:54:33;16.90;67.80
4840;DHT22;2434;48.486;7.964;2022-09-09T05:57:02;17.00;68.60
4840;DHT22;2434;48.486;7.964;2022-09-09T05:59:31;16.90;67.80
4840;DHT22;2434;48.486;7.964;2022-09-09T06:02:00;17.00;67.80
4840;DHT22;2434;48.486;7.964;2022-09-09T06:04:33;17.00;68.40
4840;DHT22;2434;48.486;7.964;2022-09-09T06:07:03;17.10;68.60
4840;DHT22;2434;48.486;7.964;2022-09-09T06:09:32;17.10;68.30
4840;DHT22;2434;48.486;7.964;2022-09-09T06:12:00;17.10;69.40
4840;DHT22;2434;48.486;7.964;2022-09-09T06:14:33;17.10;68.90
4840;DHT22;2434;48.486;7.964;2022-09-09T06:17:01;17.10;68.30
4840;DHT22;2434;48.486;7.964;2022-09-09T06:19:30;17.20;68.60
4840;DHT22;2434;48.486;7.964;2022-09-09T06:21:59;17.20;68.80
4840;DHT22;2434;48.486;7.964;2022-09-09T06:24:30;17.20;69.90
4840;DHT22;2434;48.486;7.964;2022-09-09T06:27:01;17.20;69.00
4840;DHT22;2434;48.486;7.964;2022-09-09T06:29:34;17.30;68.80
4840;DHT22;2434;48.486;7.964;2022-09-09T06:32:03;17.30;69.10
4840;DHT22;2434;48.486;7.964;2022-09-09T06:34:34;17.30;69.50
4840;DHT22;2434;48.486;7.964;2022-09-09T06:37:03;17.30;70.00
4840;DHT22;2434;48.486;7.964;2022-09-09T06:40:14;17.40;68.90
4840;DHT22;2434;48.486;7.964;2022-09-09T06:42:43;17.40;69.70
4840;DHT22;2434;48.486;7.964;2022-09-09T06:45:32;17.40;69.00
4840;DHT22;2434;48.486;7.964;2022-09-09T06:48:03;17.50;69.70
4840;DHT22;2434;48.486;7.964;2022-09-09T06:50:32;17.50;69.90
4840;DHT22;2434;48.486;7.964;2022-09-09T06:53:02;17.50;69.80
4840;DHT22;2434;48.486;7.964;2022-09-09T06:55:30;17.60;69.30
4840;DHT22;2434;48.486;7.964;2022-09-09T06:57:59;17.70;69.00
4840;DHT22;2434;48.486;7.964;2022-09-09T07:00:28;17.70;68.60
4840;DHT22;2434;48.486;7.964;2022-09-09T07:02:59;17.80;68.80
4840;DHT22;2434;48.486;7.964;2022-09-09T07:05:28;17.80;68.30
4840;DHT22;2434;48.486;7.964;2022-09-09T07:07:56;17.70;68.40
4840;DHT22;2434;48.486;7.964;2022-09-09T07:10:25;17.80;69.00
4840;DHT22;2434;48.486;7.964;2022-09-09T07:12:54;17.80;69.50
4840;DHT22;2434;48.486;7.964;2022-09-09T07:15:24;17.80;70.10
4840;DHT22;2434;48.486;7.964;2022-09-09T07:17:54;17.80;69.80
4840;DHT22;2434;48.486;7.964;2022-09-09T07:20:23;17.90;69.60
4840;DHT22;2434;48.486;7.964;2022-09-09T07:22:55;17.90;69.00
4840;DHT22;2434;48.486;7.964;2022-09-09T07:25:25;18.00;69.70
4840;DHT22;2434;48.486;7.964;2022-09-09T07:27:56;18.10;68.70
4840;DHT22;2434;48.486;7.964;2022-09-09T07:30:25;18.10;68.20
4840;DHT22;2434;48.486;7.964;2022-09-09T07:32:55;18.00;68.50
4840;DHT22;2434;48.486;7.964;2022-09-09T07:35:26;17.90;68.50
4840;DHT22;2434;48.486;7.964;2022-09-09T07:37:54;17.90;69.80
4840;DHT22;2434;48.486;7.964;2022-09-09T07:40:23;17.90;70.00
4840;DHT22;2434;48.486;7.964;2022-09-09T07:42:52;18.00;69.90
4840;DHT22;2434;48.486;7.964;2022-09-09T07:45:21;18.00;69.70
4840;DHT22;2434;48.486;7.964;2022-09-09T07:47:49;18.10;70.90
4840;DHT22;2434;48.486;7.964;2022-09-09T07:50:20;18.20;70.40
4840;DHT22;2434;48.486;7.964;2022-09-09T07:52:50;18.30;69.00
4840;DHT22;2434;48.486;7.964;2022-09-09T07:55:20;18.40;69.40
4840;DHT22;2434;48.486;7.964;2022-09-09T07:57:48;18.40;68.50
4840;DHT22;2434;48.486;7.964;2022-09-09T08:00:17;18.50;68.10
4840;DHT22;2434;48.486;7.964;2022-09-09T08:02:51;18.60;67.70
4840;DHT22;2434;48.486;7.964;2022-09-09T08:05:21;18.60;67.20
4840;DHT22;2434;48.486;7.964;2022-09-09T08:07:51;18.60;68.30
4840;DHT22;2434;48.486;7.964;2022-09-09T08:10:21;18.60;67.60
4840;DHT22;2434;48.486;7.964;2022-09-09T08:12:52;18.70;67.60
4840;DHT22;2434;48.486;7.964;2022-09-09T08:15:41;18.70;67.80
4840;DHT22;2434;48.486;7.964;2022-09-09T08:18:10;18.70;67.10
4840;DHT22;2434;48.486;7.964;2022-09-09T08:20:39;18.70;67.50
4840;DHT22;2434;48.486;7.964;2022-09-09T08:23:09;18.80;67.80
4840;DHT22;2434;48.486;7.964;2022-09-09T08:25:37;18.80;67.60
4840;DHT22;2434;48.486;7.964;2022-09-09T08:28:06;19.00;67.10
4840;DHT22;2434;48.486;7.964;2022-09-09T08:30:34;19.00;66.60
4840;DHT22;2434;48.486;7.964;2022-09-09T08:33:03;19.10;68.50
4840;DHT22;2434;48.486;7.964;2022-09-09T08:35:31;19.30;64.60
4840;DHT22;2434;48.486;7.964;2022-09-09T08:38:01;19.40;63.50
4840;DHT22;2434;48.486;7.964;2022-09-09T08:40:43;19.40;62.30
4840;DHT22;2434;48.486;7.964;2022-09-09T08:43:19;19.30;62.90
4840;DHT22;2434;48.486;7.964;2022-09-09T08:45:56;19.30;62.30
4840;DHT22;2434;48.486;7.964;2022-09-09T08:48:39;19.30;63.50
4840;DHT22;2434;48.486;7.964;2022-09-09T08:51:11;19.30;64.20
4840;DHT22;2434;48.486;7.964;2022-09-09T08:53:43;19.30;63.70
4840;DHT22;2434;48.486;7.964;2022-09-09T08:56:18;19.40;62.90
4840;DHT22;2434;48.486;7.964;2022-09-09T08:58:54;19.50;64.10
4840;DHT22;2434;48.486;7.964;2022-09-09T09:01:43;19.60;62.60
4840;DHT22;2434;48.486;7.964;2022-09-09T09:04:33;19.60;61.80
4840;DHT22;2434;48.486;7.964;2022-09-09T09:07:13;19.50;61.00
4840;DHT22;2434;48.486;7.964;2022-09-09T09:09:51;19.50;64.00
4840;DHT22;2434;48.486;7.964;2022-09-09T09:12:31;19.40;64.40
4840;DHT22;2434;48.486;7.964;2022-09-09T09:15:01;19.30;64.60
4840;DHT22;2434;48.486;7.964;2022-09-09T09:17:31;19.40;64.80
4840;DHT22;2434;48.486;7.964;2022-09-09T09:20:05;19.40;65.50
4840;DHT22;2434;48.486;7.964;2022-09-09T09:22:39;19.40;65.20
4840;DHT22;2434;48.486;7.964;2022-09-09T09:25:18;19.50;64.00
4840;DHT22;2434;48.486;7.964;2022-09-09T09:28:02;19.50;63.10
4840;DHT22;2434;48.486;7.964;2022-09-09T09:30:40;19.50;62.00
4840;DHT22;2434;48.486;7.964;2022-09-09T09:33:15;19.50;63.30
4840;DHT22;2434;48.486;7.964;2022-09-09T09:35:48;19.50;62.60
4840;DHT22;2434;48.486;7.964;2022-09-09T09:38:21;19.50;63.30
4840;DHT22;2434;48.486;7.964;2022-09-09T09:41:11;19.50;63.90
4840;DHT22;2434;48.486;7.964;2022-09-09T09:43:41;19.30;61.60
4840;DHT22;2434;48.486;7.964;2022-09-09T09:46:21;19.20;62.20
4840;DHT22;2434;48.486;7.964;2022-09-09T09:48:59;19.10;62.80
4840;DHT22;2434;48.486;7.964;2022-09-09T09:51:30;19.00;65.50
4840;DHT22;2434;48.486;7.964;2022-09-09T09:54:09;18.70;73.00
4840;DHT22;2434;48.486;7.964;2022-09-09T09:56:46;18.30;77.70
4840;DHT22;2434;48.486;7.964;2022-09-09T09:59:34;17.70;75.50
4840;DHT22;2434;48.486;7.964;2022-09-09T10:02:18;17.50;79.90
4840;DHT22;2434;48.486;7.964;2022-09-09T10:05:02;17.30;79.80
4840;DHT22;2434;48.486;7.964;2022-09-09T10:07:33;17.20;82.20
4840;DHT22;2434;48.486;7.964;2022-09-09T10:10:01;17.20;82.60
4840;DHT22;2434;48.486;7.964;2022-09-09T10:12:37;17.20;80.60
4840;DHT22;2434;48.486;7.964;2022-09-09T10:15:24;17.10;80.70
4840;DHT22;2434;48.486;7.964;2022-09-09T10:18:15;17.20;80.00
4840;DHT22;2434;48.486;7.964;2022-09-09T10:20:54;17.10;80.90
4840;DHT22;2434;48.486;7.964;2022-09-09T10:23:38;17.30;82.70
4840;DHT22;2434;48.486;7.964;2022-09-09T10:26:22;17.50;83.00
4840;DHT22;2434;48.486;7.964;2022-09-09T10:29:15;17.90;79.90
4840;DHT22;2434;48.486;7.964;2022-09-09T10:31:58;18.20;78.30
4840;DHT22;2434;48.486;7.964;2022-09-09T10:34:55;18.50;77.80
4840;DHT22;2434;48.486;7.964;2022-09-09T10:37:41;18.70;73.70
4840;DHT22;2434;48.486;7.964;2022-09-09T10:40:31;18.80;74.10
4840;DHT22;2434;48.486;7.964;2022-09-09T10:43:09;19.00;70.10
4840;DHT22;2434;48.486;7.964;2022-09-09T10:45:47;19.00;69.90
4840;DHT22;2434;48.486;7.964;2022-09-09T10:48:31;19.20;72.00
4840;DHT22;2434;48.486;7.964;2022-09-09T10:51:22;19.40;71.30
4840;DHT22;2434;48.486;7.964;2022-09-09T10:54:01;19.50;66.90
4840;DHT22;2434;48.486;7.964;2022-09-09T10:56:37;19.50;64.60
4840;DHT22;2434;48.486;7.964;2022-09-09T10:59:13;19.50;61.30
4840;DHT22;2434;48.486;7.964;2022-09-09T11:01:46;19.40;62.30
4840;DHT22;2434;48.486;7.964;2022-09-09T11:04:22;19.40;62.00
4840;DHT22;2434;48.486;7.964;2022-09-09T11:06:53;19.50;64.80
4840;DHT22;2434;48.486;7.964;2022-09-09T11:09:24;19.60;65.60
4840;DHT22;2434;48.486;7.964;2022-09-09T11:11:56;19.80;66.40
4840;DHT22;2434;48.486;7.964;2022-09-09T11:14:29;20.00;66.40
4840;DHT22;2434;48.486;7.964;2022-09-09T11:17:08;20.00;64.50
4840;DHT22;2434;48.486;7.964;2022-09-09T11:19:42;20.10;63.80
4840;DHT22;2434;48.486;7.964;2022-09-09T11:22:18;20.20;61.50
4840;DHT22;2434;48.486;7.964;2022-09-09T11:24:49;20.40;62.00
4840;DHT22;2434;48.486;7.964;2022-09-09T11:27:22;20.60;62.90
4840;DHT22;2434;48.486;7.964;2022-09-09T11:30:05;20.60;61.50
4840;DHT22;2434;48.486;7.964;2022-09-09T11:33:29;20.80;60.20
4840;DHT22;2434;48.486;7.964;2022-09-09T11:36:15;20.90;57.50
4840;DHT22;2434;48.486;7.964;2022-09-09T11:38:45;20.70;52.30
4840;DHT22;2434;48.486;7.964;2022-09-09T11:41:15;20.70;53.20
4840;DHT22;2434;48.486;7.964;2022-09-09T11:43:48;20.70;52.80
4840;DHT22;2434;48.486;7.964;2022-09-09T11:46:20;20.70;53.30
4840;DHT22;2434;48.486;7.964;2022-09-09T11:48:58;20.90;52.80
4840;DHT22;2434;48.486;7.964;2022-09-09T11:51:30;21.10;50.70
4840;DHT22;2434;48.486;7.964;2022-09-09T11:54:00;21.10;51.40
4840;DHT22;2434;48.486;7.964;2022-09-09T11:56:30;21.20;52.20
4840;DHT22;2434;48.486;7.964;2022-09-09T11:59:02;21.40;50.20
4840;DHT22;2434;48.486;7.964;2022-09-09T12:01:35;21.40;50.90
4840;DHT22;2434;48.486;7.964;2022-09-09T12:04:29;21.50;52.60
4840;DHT22;2434;48.486;7.964;2022-09-09T12:07:02;21.50;52.10
4840;DHT22;2434;48.486;7.964;2022-09-09T12:09:46;21.90;53.00
4840;DHT22;2434;48.486;7.964;2022-09-09T12:12:29;22.10;53.30
4840;DHT22;2434;48.486;7.964;2022-09-09T12:15:02;22.20;50.50
4840;DHT22;2434;48.486;7.964;2022-09-09T12:17:41;22.30;50.20
4840;DHT22;2434;48.486;7.964;2022-09-09T12:20:13;22.40;50.30
4840;DHT22;2434;48.486;7.964;2022-09-09T12:25:58;22.20;47.90
4840;DHT22;2434;48.486;7.964;2022-09-09T12:28:39;22.30;49.40
4840;DHT22;2434;48.486;7.964;2022-09-09T12:31:12;22.50;50.00
4840;DHT22;2434;48.486;7.964;2022-09-09T12:33:46;22.50;47.80
4840;DHT22;2434;48.486;7.964;2022-09-09T12:36:17;22.20;45.20
4840;DHT22;2434;48.486;7.964;2022-09-09T12:38:48;22.40;50.00
4840;DHT22;2434;48.486;7.964;2022-09-09T12:41:21;22.70;48.40
4840;DHT22;2434;48.486;7.964;2022-09-09T12:43:49;22.90;48.20
4840;DHT22;2434;48.486;7.964;2022-09-09T12:46:23;23.00;47.50
4840;DHT22;2434;48.486;7.964;2022-09-09T12:48:55;23.10;43.40
4840;DHT22;2434;48.486;7.964;2022-09-09T12:51:26;22.90;42.40
4840;DHT22;2434;48.486;7.964;2022-09-09T12:53:57;22.90;42.30
4840;DHT22;2434;48.486;7.964;2022-09-09T12:56:28;22.80;42.60
4840;DHT22;2434;48.486;7.964;2022-09-09T12:58:58;22.70;41.90
4840;DHT22;2434;48.486;7.964;2022-09-09T13:01:29;22.40;40.30
4840;DHT22;2434;48.486;7.964;2022-09-09T13:03:59;22.00;38.90
4840;DHT22;2434;48.486;7.964;2022-09-09T13:06:28;21.70;38.70
4840;DHT22;2434;48.486;7.964;2022-09-09T13:08:59;21.60;37.30
4840;DHT22;2434;48.486;7.964;2022-09-09T13:11:31;21.40;36.80
4840;DHT22;2434;48.486;7.964;2022-09-09T13:14:02;21.40;37.60
4840;DHT22;2434;48.486;7.964;2022-09-09T13:16:34;21.40;37.90
4840;DHT22;2434;48.486;7.964;2022-09-09T13:19:13;21.40;37.80
4840;DHT22;2434;48.486;7.964;2022-09-09T13:21:43;21.40;36.50
4840;DHT22;2434;48.486;7.964;2022-09-09T13:24:28;21.30;37.90
4840;DHT22;2434;48.486;7.964;2022-09-09T13:26:57;21.10;43.60
4840;DHT22;2434;48.486;7.964;2022-09-09T13:29:25;21.10;42.00
4840;DHT22;2434;48.486;7.964;2022-09-09T13:31:54;21.10;48.40
4840;DHT22;2434;48.486;7.964;2022-09-09T13:34:33;20.40;51.20
4840;DHT22;2434;48.486;7.964;2022-09-09T13:37:03;20.40;52.60
4840;DHT22;2434;48.486;7.964;2022-09-09T13:39:36;20.20;52.70
4840;DHT22;2434;48.486;7.964;2022-09-09T13:42:06;20.20;52.40
4840;DHT22;2434;48.486;7.964;2022-09-09T13:44:37;20.40;53.50
4840;DHT22;2434;48.486;7.964;2022-09-09T13:47:17;20.50;52.30
4840;DHT22;2434;48.486;7.964;2022-09-09T13:49:47;20.40;50.90
4840;DHT22;2434;48.486;7.964;2022-09-09T13:52:16;20.40;50.90
4840;DHT22;2434;48.486;7.964;2022-09-09T13:54:49;20.70;52.20
4840;DHT22;2434;48.486;7.964;2022-09-09T13:57:19;21.00;50.90
4840;DHT22;2434;48.486;7.964;2022-09-09T13:59:48;21.20;48.90
4840;DHT22;2434;48.486;7.964;2022-09-09T14:02:31;21.00;48.10
4840;DHT22;2434;48.486;7.964;2022-09-09T14:05:00;20.80;46.20
4840;DHT22;2434;48.486;7.964;2022-09-09T14:07:29;20.70;46.80
4840;DHT22;2434;48.486;7.964;2022-09-09T14:09:58;20.70;46.60
4840;DHT22;2434;48.486;7.964;2022-09-09T14:12:27;20.70;48.80
4840;DHT22;2434;48.486;7.964;2022-09-09T14:14:56;20.70;49.00
4840;DHT22;2434;48.486;7.964;2022-09-09T14:17:24;20.90;51.10
4840;DHT22;2434;48.486;7.964;2022-09-09T14:19:56;21.00;49.40
4840;DHT22;2434;48.486;7.964;2022-09-09T14:22:24;21.00;47.80
4840;DHT22;2434;48.486;7.964;2022-09-09T14:24:53;21.00;43.10
4840;DHT22;2434;48.486;7.964;2022-09-09T14:27:23;21.20;41.40
4840;DHT22;2434;48.486;7.964;2022-09-09T14:29:52;21.10;40.30
4840;DHT22;2434;48.486;7.964;2022-09-09T14:32:21;21.10;40.90
4840;DHT22;2434;48.486;7.964;2022-09-09T14:34:49;21.10;41.70
4840;DHT22;2434;48.486;7.964;2022-09-09T14:37:18;21.10;41.60
4840;DHT22;2434;48.486;7.964;2022-09-09T14:39:47;21.10;41.70
4840;DHT22;2434;48.486;7.964;2022-09-09T14:42:17;21.10;40.00
4840;DHT22;2434;48.486;7.964;2022-09-09T14:44:47;21.10;39.50
4840;DHT22;2434;48.486;7.964;2022-09-09T14:47:15;21.10;39.10
4840;DHT22;2434;48.486;7.964;2022-09-09T14:49:44;21.00;38.00
4840;DHT22;2434;48.486;7.964;2022-09-09T14:52:13;20.40;45.40
4840;DHT22;2434;48.486;7.964;2022-09-09T14:54:41;20.00;50.90
4840;DHT22;2434;48.486;7.964;2022-09-09T14:57:09;19.40;56.10
4840;DHT22;2434;48.486;7.964;2022-09-09T14:59:37;19.30;63.80
4840;DHT22;2434;48.486;7.964;2022-09-09T15:02:08;19.10;65.80
4840;DHT22;2434;48.486;7.964;2022-09-09T15:04:36;19.30;65.00
4840;DHT22;2434;48.486;7.964;2022-09-09T15:07:05;19.30;66.50
4840;DHT22;2434;48.486;7.964;2022-09-09T15:09:33;19.30;67.40
4840;DHT22;2434;48.486;7.964;2022-09-09T15:12:01;19.50;65.20
4840;DHT22;2434;48.486;7.964;2022-09-09T15:14:31;19.80;63.50
4840;DHT22;2434;48.486;7.964;2022-09-09T15:16:59;19.80;64.10
4840;DHT22;2434;48.486;7.964;2022-09-09T15:19:29;19.70;64.20
4840;DHT22;2434;48.486;7.964;2022-09-09T15:21:58;19.90;61.40
4840;DHT22;2434;48.486;7.964;2022-09-09T15:24:26;20.10;60.30
4840;DHT22;2434;48.486;7.964;2022-09-09T15:26:54;20.10;58.60
4840;DHT22;2434;48.486;7.964;2022-09-09T15:29:23;20.20;57.30
4840;DHT22;2434;48.486;7.964;2022-09-09T15:31:53;20.20;59.40
4840;DHT22;2434;48.486;7.964;2022-09-09T15:34:22;20.40;56.60
4840;DHT22;2434;48.486;7.964;2022-09-09T15:36:51;20.30;58.10
4840;DHT22;2434;48.486;7.964;2022-09-09T15:39:22;20.30;58.30
4840;DHT22;2434;48.486;7.964;2022-09-09T15:41:50;20.50;56.90
4840;DHT22;2434;48.486;7.964;2022-09-09T15:44:19;20.30;53.00
4840;DHT22;2434;48.486;7.964;2022-09-09T15:46:49;20.10;50.90
4840;DHT22;2434;48.486;7.964;2022-09-09T15:49:22;20.10;54.10
4840;DHT22;2434;48.486;7.964;2022-09-09T15:51:55;20.10;54.00
4840;DHT22;2434;48.486;7.964;2022-09-09T15:54:25;20.40;53.90
4840;DHT22;2434;48.486;7.964;2022-09-09T15:56:55;20.30;51.70
4840;DHT22;2434;48.486;7.964;2022-09-09T15:59:24;20.40;51.80
4840;DHT22;2434;48.486;7.964;2022-09-09T16:01:52;20.50;50.50
4840;DHT22;2434;48.486;7.964;2022-09-09T16:04:23;20.60;49.50
4840;DHT22;2434;48.486;7.964;2022-09-09T16:06:54;20.70;49.30
4840;DHT22;2434;48.486;7.964;2022-09-09T16:09:23;20.70;47.90
4840;DHT22;2434;48.486;7.964;2022-09-09T16:11:51;20.60;44.00
4840;DHT22;2434;48.486;7.964;2022-09-09T16:14:20;20.40;45.40
4840;DHT22;2434;48.486;7.964;2022-09-09T16:16:49;20.40;44.20
4840;DHT22;2434;48.486;7.964;2022-09-09T16:19:17;20.30;44.50
4840;DHT22;2434;48.486;7.964;2022-09-09T16:21:47;20.30;44.20
4840;DHT22;2434;48.486;7.964;2022-09-09T16:24:19;20.30;45.20
4840;DHT22;2434;48.486;7.964;2022-09-09T16:26:49;20.40;45.30
4840;DHT22;2434;48.486;7.964;2022-09-09T16:29:18;20.40;45.10
4840;DHT22;2434;48.486;7.964;2022-09-09T16:31:48;20.50;45.80
4840;DHT22;2434;48.486;7.964;2022-09-09T16:34:17;20.50;45.20
4840;DHT22;2434;48.486;7.964;2022-09-09T16:36:47;20.60;44.80
4840;DHT22;2434;48.486;7.964;2022-09-09T16:39:19;20.50;45.20
4840;DHT22;2434;48.486;7.964;2022-09-09T16:41:48;20.60;44.60
4840;DHT22;2434;48.486;7.964;2022-09-09T16:44:17;20.70;44.50